createdAt,value
2022-12-23T00:00:45.319Z,11.48
2022-12-23T00:03:14.450Z,11.15
2022-12-23T00:05:43.244Z,11.70
2022-12-23T00:08:11.982Z,11.23
2022-12-23T00:10:40.965Z,11.67
2022-12-23T00:13:27.632Z,11.00
2022-12-23T00:16:05.242Z,12.85
2022-12-23T00:18:34.550Z,12.30
2022-12-23T00:21:08.882Z,11.48
2022-12-23T00:23:39.908Z,11.93
2022-12-23T00:26:12.013Z,13.43
2022-12-23T00:28:42.719Z,14.30
2022-12-23T00:31:13.645Z,13.75
2022-12-23T00:33:44.611Z,12.57
2022-12-23T00:36:15.103Z,12.27
2022-12-23T00:39:01.216Z,14.02
2022-12-23T00:41:47.121Z,15.73
2022-12-23T00:44:16.143Z,15.82
2022-12-23T00:46:47.671Z,14.10
2022-12-23T00:49:35.052Z,14.43
2022-12-23T00:52:04.409Z,14.10
2022-12-23T00:54:33.200Z,15.57
2022-12-23T00:57:02.677Z,17.83
2022-12-23T00:59:31.456Z,16.20
2022-12-23T01:02:19.149Z,14.90
2022-12-23T01:05:05.217Z,14.55
2022-12-23T01:07:33.966Z,17.25
2022-12-23T01:10:02.754Z,15.77
2022-12-23T01:12:31.412Z,16.67
2022-12-23T01:15:00.125Z,13.85
2022-12-23T01:17:30.223Z,15.20
2022-12-23T01:19:59.021Z,15.63
2022-12-23T01:22:27.677Z,16.20
2022-12-23T01:24:56.499Z,16.08
2022-12-23T01:27:25.360Z,15.13
2022-12-23T01:29:54.079Z,15.93
2022-12-23T01:32:22.908Z,16.50
2022-12-23T01:34:53.177Z,14.43
2022-12-23T01:37:21.855Z,16.15
2022-12-23T01:39:50.742Z,16.45
2022-12-23T01:42:46.417Z,15.85
2022-12-23T01:45:20.864Z,17.20
2022-12-23T01:47:53.410Z,16.92
2022-12-23T01:50:29.185Z,17.80
2022-12-23T01:53:08.390Z,16.23
2022-12-23T01:55:44.527Z,15.77
2022-12-23T01:58:17.202Z,16.20
2022-12-23T02:01:06.034Z,18.48
2022-12-23T02:03:44.033Z,17.25
2022-12-23T02:06:37.567Z,15.80
2022-12-23T02:09:19.170Z,16.02
2022-12-23T02:12:14.553Z,16.98
2022-12-23T02:15:20.712Z,16.83
2022-12-23T02:17:59.712Z,16.50
2022-12-23T02:20:54.338Z,17.77
2022-12-23T02:24:01.651Z,17.58
2022-12-23T02:26:57.448Z,17.30
2022-12-23T02:29:52.498Z,16.60
2022-12-23T02:32:30.721Z,16.27
2022-12-23T02:35:08.323Z,17.02
2022-12-23T02:37:42.216Z,15.82
2022-12-23T02:40:15.949Z,16.80
2022-12-23T02:42:50.488Z,17.08
2022-12-23T02:45:24.848Z,17.20
2022-12-23T02:48:00.987Z,16.33
2022-12-23T02:50:31.874Z,15.32
2022-12-23T02:53:05.280Z,16.88
2022-12-23T02:55:37.465Z,17.00
2022-12-23T02:58:12.479Z,16.08
2022-12-23T03:00:44.241Z,17.20
2022-12-23T03:03:17.327Z,15.82
2022-12-23T03:05:48.119Z,15.75
2022-12-23T03:08:22.104Z,16.48
2022-12-23T03:11:04.682Z,16.00
2022-12-23T03:14:09.246Z,14.82
2022-12-23T03:16:51.612Z,15.05
2022-12-23T03:19:27.753Z,16.08
2022-12-23T03:22:07.247Z,14.93
2022-12-23T03:24:46.157Z,14.02
2022-12-23T03:27:20.040Z,15.20
2022-12-23T03:29:55.991Z,15.02
2022-12-23T03:32:27.671Z,15.05
2022-12-23T03:35:00.413Z,15.60
2022-12-23T03:37:32.634Z,16.00
2022-12-23T03:40:07.009Z,14.27
2022-12-23T03:42:38.263Z,15.93
2022-12-23T03:45:38.558Z,14.88
2022-12-23T03:48:07.198Z,15.23
2022-12-23T03:50:39.327Z,16.27
2022-12-23T03:53:12.322Z,15.80
2022-12-23T03:55:46.163Z,15.60
2022-12-23T03:58:28.634Z,15.63
2022-12-23T04:01:02.020Z,15.15
2022-12-23T04:03:37.005Z,16.63
2022-12-23T04:06:12.201Z,14.98
2022-12-23T04:08:43.322Z,15.30
2022-12-23T04:11:12.664Z,16.70
2022-12-23T04:13:41.619Z,15.45
2022-12-23T04:16:10.663Z,14.93
2022-12-23T04:18:39.403Z,15.65
2022-12-23T04:21:09.593Z,16.45
2022-12-23T04:23:38.337Z,15.68
2022-12-23T04:26:09.040Z,16.40
2022-12-23T04:28:37.907Z,16.52
2022-12-23T04:31:06.851Z,16.73
2022-12-23T04:33:35.548Z,15.27
2022-12-23T04:36:04.249Z,17.10
2022-12-23T04:38:34.503Z,14.77
2022-12-23T04:41:03.527Z,16.38
2022-12-23T04:43:32.160Z,14.90
2022-12-23T04:46:00.874Z,14.13
2022-12-23T04:48:29.642Z,15.82
2022-12-23T04:50:59.825Z,15.13
2022-12-23T04:53:28.664Z,15.65
2022-12-23T04:55:58.780Z,15.63
2022-12-23T04:58:27.464Z,15.73
2022-12-23T05:01:03.030Z,16.52
2022-12-23T05:03:32.506Z,15.25
2022-12-23T05:06:01.216Z,16.23
2022-12-23T05:08:30.082Z,15.20
2022-12-23T05:11:00.251Z,15.55
2022-12-23T05:13:29.016Z,15.40
2022-12-23T05:15:57.853Z,16.77
2022-12-23T05:18:26.639Z,17.80
2022-12-23T05:20:55.372Z,17.23
2022-12-23T05:23:24.195Z,17.30
2022-12-23T05:25:53.945Z,16.07
2022-12-23T05:28:24.824Z,15.82
2022-12-23T05:31:00.208Z,15.48
2022-12-23T05:33:29.811Z,15.50
2022-12-23T05:35:58.580Z,15.45
2022-12-23T05:38:27.671Z,16.50
2022-12-23T05:40:56.389Z,15.70
2022-12-23T05:43:29.762Z,14.60
2022-12-23T05:45:58.550Z,16.52
2022-12-23T05:48:30.231Z,17.30
2022-12-23T05:50:59.072Z,18.38
2022-12-23T05:53:27.903Z,17.67
2022-12-23T05:55:56.633Z,18.90
2022-12-23T05:58:25.515Z,16.63
2022-12-23T06:00:55.704Z,17.38
2022-12-23T06:03:24.631Z,16.85
2022-12-23T06:05:54.609Z,16.30
2022-12-23T06:10:51.903Z,18.52
2022-12-23T06:13:20.702Z,17.63
2022-12-23T06:15:49.617Z,17.83
2022-12-23T06:18:19.766Z,15.77
2022-12-23T06:20:49.007Z,17.73
2022-12-23T06:23:20.424Z,16.75
2022-12-23T06:25:49.286Z,17.00
2022-12-23T06:28:18.080Z,16.73
2022-12-23T06:30:46.820Z,17.45
2022-12-23T06:33:15.474Z,17.20
2022-12-23T06:35:46.554Z,16.42
2022-12-23T06:38:15.426Z,16.08
2022-12-23T06:40:44.235Z,18.83
2022-12-23T06:43:13.646Z,19.07
2022-12-23T06:45:42.968Z,16.73
2022-12-23T06:48:11.715Z,15.38
2022-12-23T06:50:40.390Z,15.88
2022-12-23T06:53:10.807Z,15.13
2022-12-23T06:55:39.587Z,14.35
2022-12-23T06:58:08.382Z,14.52
2022-12-23T07:00:37.401Z,13.63
2022-12-23T07:03:09.430Z,14.85
2022-12-23T07:05:38.434Z,13.80
2022-12-23T07:08:09.073Z,14.57
2022-12-23T07:10:39.237Z,14.35
2022-12-23T07:13:08.060Z,13.52
2022-12-23T07:15:37.930Z,15.23
2022-12-23T07:18:10.506Z,13.40
2022-12-23T07:20:39.568Z,13.88
2022-12-23T07:23:08.400Z,12.73
2022-12-23T07:25:38.604Z,12.73
2022-12-23T07:28:07.444Z,12.45
2022-12-23T07:30:36.589Z,24.35
2022-12-23T07:33:05.386Z,21.45
2022-12-23T07:35:34.171Z,16.87
2022-12-23T07:38:02.940Z,13.65
2022-12-23T07:40:31.987Z,13.02
2022-12-23T07:43:02.276Z,12.37
2022-12-23T07:45:31.778Z,12.90
2022-12-23T07:48:03.660Z,12.15
2022-12-23T07:50:32.433Z,12.38
2022-12-23T07:53:01.057Z,13.73
2022-12-23T07:55:29.904Z,12.65
2022-12-23T07:57:58.642Z,14.00
2022-12-23T08:00:28.821Z,13.52
2022-12-23T08:02:57.646Z,12.77
2022-12-23T08:05:26.592Z,11.80
2022-12-23T08:07:55.336Z,13.25
2022-12-23T08:10:24.125Z,14.02
2022-12-23T08:12:52.696Z,13.98
2022-12-23T08:15:24.448Z,13.48
2022-12-23T08:17:56.991Z,13.07
2022-12-23T08:20:25.740Z,15.38
2022-12-23T08:22:54.532Z,15.82
2022-12-23T08:25:25.791Z,14.13
2022-12-23T08:28:00.614Z,15.32
2022-12-23T08:30:29.401Z,17.88
2022-12-23T08:32:59.545Z,16.70
2022-12-23T08:35:30.254Z,17.67
2022-12-23T08:37:58.873Z,16.60
2022-12-23T08:40:30.040Z,17.33
2022-12-23T08:42:58.783Z,18.23
2022-12-23T08:45:27.527Z,19.85
2022-12-23T08:47:57.391Z,21.77
2022-12-23T08:50:28.517Z,21.17
2022-12-23T08:52:57.391Z,19.88
2022-12-23T08:55:26.055Z,18.90
2022-12-23T08:57:54.715Z,18.48
2022-12-23T09:00:23.784Z,16.90
2022-12-23T09:02:52.510Z,16.27
2022-12-23T09:05:23.815Z,15.95
2022-12-23T09:07:53.882Z,16.30
2022-12-23T09:10:23.456Z,14.98
2022-12-23T09:12:58.152Z,15.43
2022-12-23T09:15:27.139Z,14.65
2022-12-23T09:17:57.497Z,13.63
2022-12-23T09:20:26.428Z,16.52
2022-12-23T09:23:00.567Z,15.25
2022-12-23T09:25:29.330Z,16.90
2022-12-23T09:27:58.275Z,15.43
2022-12-23T09:30:30.347Z,16.80
2022-12-23T09:33:00.781Z,14.65
2022-12-23T09:35:29.471Z,13.95
2022-12-23T09:37:59.522Z,15.02
2022-12-23T09:40:31.729Z,16.52
2022-12-23T09:43:11.610Z,14.98
2022-12-23T09:45:53.685Z,15.70
2022-12-23T09:48:25.593Z,14.63
2022-12-23T09:50:55.211Z,14.75
2022-12-23T09:56:01.529Z,14.98
2022-12-23T09:58:33.715Z,17.38
2022-12-23T10:01:15.731Z,14.50
2022-12-23T10:04:21.028Z,14.13
2022-12-23T10:07:05.777Z,13.00
2022-12-23T10:09:44.596Z,14.82
2022-12-23T10:12:27.376Z,11.87
2022-12-23T10:15:02.117Z,13.05
2022-12-23T10:17:37.675Z,15.68
2022-12-23T10:20:11.602Z,13.65
2022-12-23T10:22:44.140Z,14.15
2022-12-23T10:25:26.747Z,12.43
2022-12-23T10:27:55.776Z,17.83
2022-12-23T10:36:14.634Z,12.43
2022-12-23T10:38:52.571Z,11.75
2022-12-23T10:41:43.917Z,14.13
2022-12-23T10:45:00.666Z,14.02
2022-12-23T10:47:41.932Z,13.93
2022-12-23T10:50:31.854Z,12.00
2022-12-23T10:53:03.514Z,13.80
2022-12-23T10:55:38.441Z,15.40
2022-12-23T10:58:15.701Z,12.73
2022-12-23T11:00:50.202Z,13.55
2022-12-23T11:03:23.476Z,12.23
2022-12-23T11:05:53.944Z,13.30
2022-12-23T11:08:24.222Z,12.23
2022-12-23T11:10:53.254Z,11.45
2022-12-23T11:13:35.706Z,11.52
2022-12-23T11:16:20.384Z,10.70
2022-12-23T11:18:57.983Z,10.35
2022-12-23T11:21:27.604Z,10.75
2022-12-23T11:24:20.609Z,10.70
2022-12-23T11:26:51.774Z,10.63
2022-12-23T11:29:29.225Z,10.68
2022-12-23T11:32:00.849Z,10.57
2022-12-23T11:34:35.658Z,10.93
2022-12-23T11:37:07.669Z,11.05
2022-12-23T11:39:38.338Z,10.32
2022-12-23T11:42:14.217Z,10.15
2022-12-23T11:44:45.944Z,10.05
2022-12-23T11:47:29.351Z,10.68
2022-12-23T11:50:05.509Z,10.18
2022-12-23T11:52:35.353Z,10.50
2022-12-23T11:57:41.314Z,10.65
2022-12-23T12:00:23.997Z,10.30
2022-12-23T12:02:55.565Z,11.43
2022-12-23T12:05:30.421Z,10.88
2022-12-23T12:08:04.864Z,11.40
2022-12-23T12:10:40.768Z,10.48
2022-12-23T12:13:22.452Z,12.93
2022-12-23T12:16:02.768Z,10.60
2022-12-23T12:18:32.584Z,13.30
2022-12-23T12:23:41.370Z,17.70
2022-12-23T12:26:17.369Z,24.25
2022-12-23T12:28:48.342Z,24.80
2022-12-23T12:31:25.154Z,22.45
2022-12-23T12:34:00.235Z,18.13
2022-12-23T12:36:37.638Z,16.42
2022-12-23T12:39:06.688Z,20.90
2022-12-23T12:41:39.121Z,17.48
2022-12-23T12:44:24.582Z,13.40
2022-12-23T12:47:00.200Z,11.57
2022-12-23T12:49:34.252Z,11.85
2022-12-23T12:52:10.689Z,10.98
2022-12-23T12:54:45.509Z,9.95
2022-12-23T12:57:17.702Z,10.57
2022-12-23T12:59:48.966Z,10.57
2022-12-23T13:02:42.929Z,10.60
2022-12-23T13:05:41.497Z,11.20
2022-12-23T13:08:24.862Z,11.95
2022-12-23T13:10:58.174Z,58.95
2022-12-23T13:13:38.996Z,12.95
2022-12-23T13:16:21.274Z,16.20
2022-12-23T13:18:57.697Z,15.15
2022-12-23T13:21:38.809Z,10.98
2022-12-23T13:24:18.983Z,12.35
2022-12-23T13:27:00.757Z,13.13
2022-12-23T13:30:02.583Z,11.02
2022-12-23T13:32:57.754Z,10.75
2022-12-23T13:35:38.385Z,23.40
2022-12-23T13:38:22.005Z,12.73
2022-12-23T13:41:00.335Z,11.32
2022-12-23T13:43:40.813Z,11.45
2022-12-23T13:46:23.108Z,11.23
2022-12-23T13:48:59.160Z,11.27
2022-12-23T13:51:36.666Z,11.40
2022-12-23T13:54:19.226Z,11.65
2022-12-23T13:56:54.499Z,10.43
2022-12-23T13:59:23.160Z,11.60
2022-12-23T14:01:53.658Z,11.00
2022-12-23T14:04:38.471Z,10.85
2022-12-23T14:07:20.479Z,11.93
2022-12-23T14:09:56.027Z,10.40
2022-12-23T14:12:29.941Z,10.98
2022-12-23T14:15:29.208Z,12.82
2022-12-23T14:18:13.084Z,11.32
2022-12-23T14:20:51.816Z,12.90
2022-12-23T14:23:36.406Z,13.52
2022-12-23T14:26:33.401Z,11.20
2022-12-23T14:29:15.983Z,12.15
2022-12-23T14:31:47.988Z,12.15
2022-12-23T14:34:31.739Z,12.35
2022-12-23T14:37:38.950Z,12.20
2022-12-23T14:40:50.589Z,14.15
2022-12-23T14:43:42.870Z,14.00
2022-12-23T14:46:57.994Z,10.35
2022-12-23T14:49:46.956Z,10.65
2022-12-23T14:52:44.321Z,11.90
2022-12-23T14:55:47.618Z,12.02
2022-12-23T14:58:44.727Z,10.77
2022-12-23T15:01:17.975Z,11.90
2022-12-23T15:03:54.596Z,12.05
2022-12-23T15:06:34.353Z,10.57
2022-12-23T15:09:04.739Z,10.95
2022-12-23T15:11:37.738Z,10.73
2022-12-23T15:14:20.721Z,11.07
2022-12-23T15:16:51.316Z,11.00
2022-12-23T15:19:23.758Z,11.18
2022-12-23T15:22:06.256Z,10.98
2022-12-23T15:27:26.493Z,11.23
2022-12-23T15:29:56.386Z,11.25
2022-12-23T15:32:28.096Z,11.77
2022-12-23T15:35:05.312Z,12.50
2022-12-23T15:37:34.905Z,11.05
2022-12-23T15:40:26.211Z,10.80
2022-12-23T15:42:57.548Z,11.00
2022-12-23T15:45:36.719Z,12.27
2022-12-23T15:48:23.367Z,11.65
2022-12-23T15:50:54.879Z,11.43
2022-12-23T15:53:24.392Z,11.82
2022-12-23T15:55:53.207Z,11.57
2022-12-23T15:58:26.264Z,12.10
2022-12-23T16:00:57.797Z,11.45
2022-12-23T16:03:35.204Z,11.30
2022-12-23T16:06:17.313Z,10.95
2022-12-23T16:08:48.709Z,9.77
2022-12-23T16:11:19.808Z,10.82
2022-12-23T16:13:59.447Z,10.80
2022-12-23T16:19:03.516Z,9.80
2022-12-23T16:21:35.152Z,10.23
2022-12-23T16:24:09.402Z,9.05
2022-12-23T16:26:42.451Z,9.20
2022-12-23T16:29:13.170Z,9.90
2022-12-23T16:31:48.382Z,9.70
2022-12-23T16:34:24.877Z,9.77
2022-12-23T16:36:55.547Z,9.90
2022-12-23T16:39:24.929Z,10.75
2022-12-23T16:41:53.732Z,10.40
2022-12-23T16:44:22.464Z,10.77
2022-12-23T16:46:52.517Z,11.48
2022-12-23T16:49:31.239Z,10.93
2022-12-23T16:52:02.506Z,10.02
2022-12-23T16:54:31.380Z,11.27
2022-12-23T16:57:00.377Z,11.82
2022-12-23T16:59:29.170Z,10.60
2022-12-23T17:02:03.524Z,10.73
2022-12-23T17:04:34.297Z,9.93
2022-12-23T17:07:03.374Z,11.15
2022-12-23T17:09:32.216Z,10.45
2022-12-23T17:12:01.039Z,9.35
2022-12-23T17:14:29.886Z,10.90
2022-12-23T17:16:58.776Z,9.90
2022-12-23T17:19:29.413Z,8.88
2022-12-23T17:22:03.468Z,8.00
2022-12-23T17:24:32.598Z,8.65
2022-12-23T17:27:01.335Z,8.07
2022-12-23T17:29:32.528Z,8.90
2022-12-23T17:32:01.464Z,7.80
2022-12-23T17:34:30.126Z,9.27
2022-12-23T17:37:02.168Z,7.75
2022-12-23T17:39:31.085Z,7.65
2022-12-23T17:41:59.850Z,7.90
2022-12-23T17:44:28.568Z,7.55
2022-12-23T17:46:59.209Z,8.13
2022-12-23T17:49:28.004Z,7.20
2022-12-23T17:51:56.721Z,8.40
2022-12-23T17:54:27.750Z,7.05
2022-12-23T17:56:56.517Z,6.13
2022-12-23T17:59:25.241Z,6.47
2022-12-23T18:01:54.088Z,5.70
2022-12-23T18:04:22.962Z,6.63
2022-12-23T18:06:51.647Z,4.97
2022-12-23T18:09:21.503Z,5.93
2022-12-23T18:11:51.689Z,5.55
2022-12-23T18:14:28.691Z,7.28
2022-12-23T18:16:57.718Z,5.40
2022-12-23T18:19:28.944Z,4.70
2022-12-23T18:21:58.448Z,5.75
2022-12-23T18:24:27.423Z,6.88
2022-12-23T18:26:57.638Z,5.60
2022-12-23T18:29:26.496Z,6.20
2022-12-23T18:31:55.417Z,6.50
2022-12-23T18:34:24.162Z,5.45
2022-12-23T18:36:53.018Z,5.80
2022-12-23T18:39:21.905Z,5.30
2022-12-23T18:41:50.682Z,5.82
2022-12-23T18:44:21.610Z,4.47
2022-12-23T18:46:51.135Z,4.50
2022-12-23T18:49:20.025Z,4.75
2022-12-23T18:51:49.309Z,4.05
2022-12-23T18:54:18.505Z,3.90
2022-12-23T18:56:47.866Z,2.65
2022-12-23T18:59:22.780Z,2.38
2022-12-23T19:01:57.525Z,2.10
2022-12-23T19:04:26.674Z,1.88
2022-12-23T19:06:56.353Z,1.70
2022-12-23T19:11:55.241Z,1.48
2022-12-23T19:16:52.977Z,1.20
2022-12-23T19:19:23.419Z,1.23
2022-12-23T19:21:53.895Z,0.90
2022-12-23T19:24:22.767Z,1.00
2022-12-23T19:26:51.502Z,1.88
2022-12-23T19:29:20.186Z,6.70
2022-12-23T19:31:51.977Z,2.15
2022-12-23T19:34:20.756Z,3.85
2022-12-23T19:36:51.968Z,0.80
2022-12-23T19:39:22.098Z,1.40
2022-12-23T19:41:50.907Z,1.38
2022-12-23T19:44:19.575Z,1.17
2022-12-23T19:46:49.743Z,1.30
2022-12-23T19:49:20.303Z,0.70
2022-12-23T19:51:51.026Z,0.68
2022-12-23T19:54:20.798Z,6.30
2022-12-23T19:59:20.234Z,1.20
2022-12-23T20:01:49.037Z,0.65
2022-12-23T20:04:19.948Z,0.68
2022-12-23T20:06:49.072Z,0.65
2022-12-23T20:09:19.337Z,0.93
2022-12-23T20:11:50.374Z,0.77
2022-12-23T20:14:24.508Z,0.70
2022-12-23T20:16:55.416Z,0.80
2022-12-23T20:19:24.055Z,0.70
2022-12-23T20:21:52.728Z,0.57
2022-12-23T20:24:22.902Z,3.15
2022-12-23T20:26:52.856Z,0.80
2022-12-23T20:29:21.636Z,0.70
2022-12-23T20:31:50.416Z,0.60
2022-12-23T20:34:19.354Z,1.10
2022-12-23T20:36:48.136Z,0.67
2022-12-23T20:39:17.027Z,0.60
2022-12-23T20:41:47.165Z,0.95
2022-12-23T20:47:05.110Z,0.60
2022-12-23T20:49:36.588Z,0.60
2022-12-23T20:52:05.975Z,1.00
2022-12-23T20:54:34.866Z,0.70
2022-12-23T20:57:05.418Z,1.70
2022-12-23T20:59:34.511Z,1.10
2022-12-23T21:02:03.440Z,0.43
2022-12-23T21:04:32.263Z,0.80
2022-12-23T21:07:05.736Z,0.40
2022-12-23T21:09:34.723Z,0.55
2022-12-23T21:12:05.650Z,0.38
2022-12-23T21:14:34.530Z,0.40
2022-12-23T21:17:03.266Z,0.50
2022-12-23T21:19:32.077Z,0.30
2022-12-23T21:22:00.751Z,0.80
2022-12-23T21:24:38.300Z,1.40
2022-12-23T21:27:08.568Z,1.05
2022-12-23T21:29:37.371Z,1.20
2022-12-23T21:32:06.320Z,4.00
2022-12-23T21:34:35.251Z,0.68
2022-12-23T21:37:04.199Z,1.53
2022-12-23T21:39:33.264Z,0.50
2022-12-23T21:42:02.197Z,0.63
2022-12-23T21:44:32.374Z,0.40
2022-12-23T21:47:01.292Z,0.50
2022-12-23T21:49:30.348Z,0.28
2022-12-23T21:51:59.196Z,0.43
2022-12-23T21:54:29.423Z,0.28
2022-12-23T21:56:59.132Z,0.50
2022-12-23T21:59:34.551Z,0.60
2022-12-23T22:02:05.368Z,0.40
2022-12-23T22:04:34.198Z,0.20
2022-12-23T22:07:02.888Z,0.47
2022-12-23T22:09:32.835Z,0.70
2022-12-23T22:12:01.691Z,0.68
2022-12-23T22:14:30.341Z,0.65
2022-12-23T22:16:59.053Z,0.40
2022-12-23T22:19:29.196Z,0.50
2022-12-23T22:21:57.887Z,1.27
2022-12-23T22:24:26.813Z,0.50
2022-12-23T22:26:55.402Z,0.47
2022-12-23T22:29:24.075Z,0.50
2022-12-23T22:31:53.657Z,0.70
2022-12-23T22:34:23.594Z,1.40
2022-12-23T22:36:53.789Z,0.35
2022-12-23T22:39:22.956Z,0.60
2022-12-23T22:41:55.466Z,0.32
2022-12-23T22:44:24.188Z,0.60
2022-12-23T22:46:53.017Z,0.50
2022-12-23T22:49:21.936Z,0.40
2022-12-23T22:51:50.599Z,0.60
2022-12-23T22:54:20.867Z,0.32
2022-12-23T22:56:49.646Z,0.50
2022-12-23T22:59:22.260Z,0.50
2022-12-23T23:01:52.210Z,0.55
2022-12-23T23:04:21.285Z,0.43
2022-12-23T23:06:50.105Z,0.50
2022-12-23T23:09:25.129Z,0.40
2022-12-23T23:11:53.871Z,0.65
2022-12-23T23:14:22.913Z,0.50
2022-12-23T23:16:51.733Z,0.57
2022-12-23T23:19:21.494Z,0.60
2022-12-23T23:21:50.245Z,0.50
2022-12-23T23:24:18.922Z,0.45
2022-12-23T23:26:49.089Z,0.40
2022-12-23T23:29:18.002Z,0.45
2022-12-23T23:31:46.781Z,0.45
2022-12-23T23:34:15.554Z,0.40
2022-12-23T23:36:44.341Z,0.65
2022-12-23T23:39:14.218Z,0.50
2022-12-23T23:44:13.740Z,0.50
2022-12-23T23:46:42.607Z,0.50
2022-12-23T23:49:11.393Z,0.70
2022-12-23T23:51:40.371Z,0.73
2022-12-23T23:54:09.676Z,0.70
2022-12-23T23:56:39.506Z,0.40
2022-12-23T23:59:09.123Z,0.30
